Time;durP1;ratioP1;P1;durP2;ratioP2;P2;SDS_P1;SDS_P2;PMS_P1;PMS_P2;Temp;Humidity;BMP_temperature;BMP_pressure;BME280_temperature;BME280_humidity;BME280_pressure;Samples;Min_cycle;Max_cycle;Signal;HPM_P1;HPM_P2
2022/08/16 00:01:53;;;;;;;;;;;;;;;;;;5027303;28;19935;-60
2022/08/16 00:04:20;;;;;;;;;;;;;;;;;;5021003;28;19988;-61
2022/08/16 00:06:46;;;;;;;;;;;;;;;;;;5026928;28;19931;-61
2022/08/16 00:09:12;;;;;;;;;;;;;;;;;;5028569;28;20376;-61
2022/08/16 00:11:39;;;;;;;;;;;;;;;;;;5032232;28;20387;-61
2022/08/16 00:14:05;;;;;;;;;;;;;;;;;;5027646;28;20468;-60
2022/08/16 00:16:34;;;;;;;;;;;;;;;;;;5030683;28;19921;-60
2022/08/16 00:19:20;;;;;;;;;;;;;;;;;;5027616;28;19921;-61
2022/08/16 00:21:47;;;;;;;;;;;;;;;;;;5028038;28;19920;-61
2022/08/16 00:24:17;;;;;;;;;;;;;;;;;;5027644;28;19925;-61
2022/08/16 00:26:56;;;;;;;;;;;;;;;;;;5028023;28;19924;-61
2022/08/16 00:29:22;;;;;;;;;;;;;;;;;;5029501;28;19921;-60
2022/08/16 00:31:49;;;;;;;;;;;;;;;;;;5025889;28;19975;-60
2022/08/16 00:34:26;;;;;;;;;;;;;;;;;;5040229;28;20298;-60
2022/08/16 00:37:06;;;;;;;;;;;;;;;;;;5014630;28;19925;-60
2022/08/16 00:39:33;;;;;;;;;;;;;;;;;;5027346;28;20021;-60
2022/08/16 00:41:59;;;;;;;;;;;;;;;;;;5029523;28;19925;-60
2022/08/16 00:44:26;;;;;;;;;;;;;;;;;;5013861;28;20314;-61
2022/08/16 00:47:00;;;;;;;;;;;;;;;;;;5025214;28;20016;-61
2022/08/16 00:49:27;;;;;;;;;;;;;;;;;;5030138;28;19925;-61
2022/08/16 00:51:54;;;;;;;;;;;;;;;;;;5020777;28;20617;-61
2022/08/16 00:54:21;;;;;;;;;;;;;;;;;;5027330;28;20012;-61
2022/08/16 00:56:47;;;;;;;;;;;;;;;;;;5031142;28;19925;-61
2022/08/16 00:59:24;;;;;;;;;;;;;;;;;;5028874;28;19939;-61
2022/08/16 01:01:50;;;;;;;;;;;;;;;;;;5026270;28;19921;-61
2022/08/16 01:04:17;;;;;;;;;;;;;;;;;;5019836;28;20371;-61
2022/08/16 01:06:55;;;;;;;;;;;;;;;;;;5026207;28;20353;-62
2022/08/16 01:09:26;;;;;;;;;;;;;;;;;;5026664;28;19987;-60
2022/08/16 01:11:59;;;;;;;;;;;;;;;;;;5029367;28;19921;-60
2022/08/16 01:14:26;;;;;;;;;;;;;;;;;;5029464;28;20008;-61
2022/08/16 01:16:56;;;;;;;;;;;;;;;;;;5046112;28;19936;-60
2022/08/16 01:19:22;;;;;;;;;;;;;;;;;;5026396;28;20048;-60
2022/08/16 01:21:49;;;;;;;;;;;;;;;;;;5027153;28;20019;-60
2022/08/16 01:24:16;;;;;;;;;;;;;;;;;;4994727;28;19926;-61
2022/08/16 01:27:03;;;;;;;;;;;;;;;;;;5026868;28;20022;-60
2022/08/16 01:29:29;;;;;;;;;;;;;;;;;;5029741;28;20298;-60
2022/08/16 01:32:10;;;;;;;;;;;;;;;;;;5037716;28;20306;-61
2022/08/16 01:34:37;;;;;;;;;;;;;;;;;;5039689;28;19964;-61
2022/08/16 01:37:12;;;;;;;;;;;;;;;;;;5036710;28;19921;-62
2022/08/16 01:39:39;;;;;;;;;;;;;;;;;;5028926;28;20039;-62
2022/08/16 01:42:07;;;;;;;;;;;;;;;;;;5027927;28;20397;-62
2022/08/16 01:44:38;;;;;;;;;;;;;;;;;;5013917;28;19979;-62
2022/08/16 01:47:05;;;;;;;;;;;;;;;;;;5045786;28;20363;-61
2022/08/16 01:49:32;;;;;;;;;;;;;;;;;;5025970;28;19925;-61
2022/08/16 01:52:09;;;;;;;;;;;;;;;;;;5029145;28;19925;-62
2022/08/16 01:55:01;;;;;;;;;;;;;;;;;;5029009;28;19927;-62
2022/08/16 01:57:27;;;;;;;;;;;;;;;;;;5043415;28;19948;-62
2022/08/16 01:59:54;;;;;;;;;;;;;;;;;;5019232;28;20040;-61
2022/08/16 02:02:23;;;;;;;;;;;;;;;;;;5031201;28;19921;-61
2022/08/16 02:04:52;;;;;;;;;;;;;;;;;;5028408;28;20031;-60
2022/08/16 02:07:22;;;;;;;;;;;;;;;;;;5032140;28;20393;-60
2022/08/16 02:09:49;;;;;;;;;;;;;;;;;;5033069;28;19928;-60
2022/08/16 02:12:22;;;;;;;;;;;;;;;;;;5046796;28;19929;-61
2022/08/16 02:15:10;;;;;;;;;;;;;;;;;;5030085;28;19969;-61
2022/08/16 02:17:37;;;;;;;;;;;;;;;;;;5017239;28;19982;-61
2022/08/16 02:20:05;;;;;;;;;;;;;;;;;;5029650;28;19925;-61
2022/08/16 02:22:37;;;;;;;;;;;;;;;;;;5029933;28;19925;-61
2022/08/16 02:25:03;;;;;;;;;;;;;;;;;;5030094;28;19944;-61
2022/08/16 02:27:30;;;;;;;;;;;;;;;;;;5030480;28;19922;-60
2022/08/16 02:29:57;;;;;;;;;;;;;;;;;;5045538;28;20338;-61
2022/08/16 02:32:30;;;;;;;;;;;;;;;;;;5026211;28;19971;-60
2022/08/16 02:35:16;;;;;;;;;;;;;;;;;;5022186;28;20056;-60
2022/08/16 02:37:42;;;;;;;;;;;;;;;;;;5044071;28;20024;-60
2022/08/16 02:40:18;;;;;;;;;;;;;;;;;;5049283;28;19928;-60
2022/08/16 02:42:45;;;;;;;;;;;;;;;;;;5032034;28;19920;-60
2022/08/16 02:45:13;;;;;;;;;;;;;;;;;;5045786;28;19921;-60
2022/08/16 02:47:39;;;;;;;;;;;;;;;;;;5016666;28;19975;-59
2022/08/16 02:50:26;;;;;;;;;;;;;;;;;;5030596;28;20365;-60
2022/08/16 02:53:12;;;;;;;;;;;;;;;;;;5028556;28;20297;-60
2022/08/16 02:55:39;;;;;;;;;;;;;;;;;;5032256;28;20019;-59
2022/08/16 02:58:07;;;;;;;;;;;;;;;;;;5031402;28;20682;-60
2022/08/16 03:00:34;;;;;;;;;;;;;;;;;;5033885;28;19983;-60
2022/08/16 03:03:02;;;;;;;;;;;;;;;;;;5046425;28;19921;-60
2022/08/16 03:05:29;;;;;;;;;;;;;;;;;;5015394;28;19983;-60
2022/08/16 03:07:58;;;;;;;;;;;;;;;;;;5027763;28;19921;-60
2022/08/16 03:10:25;;;;;;;;;;;;;;;;;;5030838;28;19921;-60
2022/08/16 03:12:58;;;;;;;;;;;;;;;;;;5027236;28;20006;-60
2022/08/16 03:15:27;;;;;;;;;;;;;;;;;;5029118;28;20446;-60
2022/08/16 03:17:54;;;;;;;;;;;;;;;;;;5046977;28;20036;-61
2022/08/16 03:20:23;;;;;;;;;;;;;;;;;;5015273;28;19945;-61
2022/08/16 03:22:58;;;;;;;;;;;;;;;;;;5027370;28;20374;-61
2022/08/16 03:25:24;;;;;;;;;;;;;;;;;;5027001;28;19927;-61
2022/08/16 03:27:57;;;;;;;;;;;;;;;;;;5047688;28;19991;-61
2022/08/16 03:30:23;;;;;;;;;;;;;;;;;;5044493;28;19927;-62
2022/08/16 03:32:54;;;;;;;;;;;;;;;;;;5021426;28;20841;-62
2022/08/16 03:35:23;;;;;;;;;;;;;;;;;;5021051;28;19921;-62
2022/08/16 03:37:50;;;;;;;;;;;;;;;;;;5020416;28;19921;-62
2022/08/16 03:40:30;;;;;;;;;;;;;;;;;;5027307;28;20382;-61
2022/08/16 03:42:59;;;;;;;;;;;;;;;;;;5030596;28;19935;-61
2022/08/16 03:45:25;;;;;;;;;;;;;;;;;;5026243;28;19921;-62
2022/08/16 03:47:53;;;;;;;;;;;;;;;;;;5030937;28;19928;-60
2022/08/16 03:50:25;;;;;;;;;;;;;;;;;;5014489;28;19921;-60
2022/08/16 03:52:53;;;;;;;;;;;;;;;;;;5026553;28;19921;-62
2022/08/16 03:55:24;;;;;;;;;;;;;;;;;;5031176;28;19925;-62
2022/08/16 03:57:52;;;;;;;;;;;;;;;;;;5041105;28;19921;-61
2022/08/16 04:00:20;;;;;;;;;;;;;;;;;;5027141;28;20380;-61
2022/08/16 04:03:08;;;;;;;;;;;;;;;;;;5027823;28;19943;-61
2022/08/16 04:05:38;;;;;;;;;;;;;;;;;;5030801;28;19949;-60
2022/08/16 04:08:05;;;;;;;;;;;;;;;;;;5046516;28;19920;-61
2022/08/16 04:10:51;;;;;;;;;;;;;;;;;;5026770;28;19928;-61
2022/08/16 04:13:17;;;;;;;;;;;;;;;;;;5030639;28;20458;-61
2022/08/16 04:15:46;;;;;;;;;;;;;;;;;;5027978;28;20008;-61
2022/08/16 04:18:19;;;;;;;;;;;;;;;;;;5019373;28;19968;-62
2022/08/16 04:20:46;;;;;;;;;;;;;;;;;;5025578;28;19925;-61
2022/08/16 04:23:13;;;;;;;;;;;;;;;;;;5029983;28;19932;-61
2022/08/16 04:25:41;;;;;;;;;;;;;;;;;;5030801;28;19921;-60
2022/08/16 04:28:08;;;;;;;;;;;;;;;;;;5046921;28;19971;-61
2022/08/16 04:30:55;;;;;;;;;;;;;;;;;;5030648;28;19960;-61
2022/08/16 04:33:21;;;;;;;;;;;;;;;;;;5034741;28;19967;-62
2022/08/16 04:35:54;;;;;;;;;;;;;;;;;;5010876;28;19922;-62
2022/08/16 04:38:22;;;;;;;;;;;;;;;;;;4998765;28;20340;-62
2022/08/16 04:40:50;;;;;;;;;;;;;;;;;;5014934;28;20529;-61
2022/08/16 04:43:17;;;;;;;;;;;;;;;;;;5021514;28;19948;-61
2022/08/16 04:45:44;;;;;;;;;;;;;;;;;;5026135;28;19920;-70
2022/08/16 04:48:13;;;;;;;;;;;;;;;;;;5027043;28;22470;-69
2022/08/16 04:50:58;;;;;;;;;;;;;;;;;;5030032;28;20000;-70
2022/08/16 04:53:37;;;;;;;;;;;;;;;;;;5013074;28;20019;-70
2022/08/16 04:56:06;;;;;;;;;;;;;;;;;;5025499;28;19927;-70
2022/08/16 04:58:37;;;;;;;;;;;;;;;;;;5019623;28;19921;-71
2022/08/16 05:01:12;;;;;;;;;;;;;;;;;;5025669;28;20007;-70
2022/08/16 05:03:41;;;;;;;;;;;;;;;;;;5026015;28;19929;-70
2022/08/16 05:06:28;;;;;;;;;;;;;;;;;;5027163;28;19926;-70
2022/08/16 05:09:07;;;;;;;;;;;;;;;;;;5027224;28;19927;-70
2022/08/16 05:11:34;;;;;;;;;;;;;;;;;;5014177;28;20028;-71
2022/08/16 05:14:02;;;;;;;;;;;;;;;;;;5045815;28;19928;-71
2022/08/16 05:16:32;;;;;;;;;;;;;;;;;;5023790;28;20330;-71
2022/08/16 05:19:07;;;;;;;;;;;;;;;;;;5020659;28;20576;-71
2022/08/16 05:21:39;;;;;;;;;;;;;;;;;;5025887;28;19921;-72
2022/08/16 05:24:08;;;;;;;;;;;;;;;;;;5026661;28;19925;-71
2022/08/16 05:26:36;;;;;;;;;;;;;;;;;;5014221;28;20348;-71
2022/08/16 05:29:06;;;;;;;;;;;;;;;;;;5025171;28;19928;-72
2022/08/16 05:31:34;;;;;;;;;;;;;;;;;;5029646;28;20376;-72
2022/08/16 05:34:01;;;;;;;;;;;;;;;;;;5019740;28;19968;-72
2022/08/16 05:36:28;;;;;;;;;;;;;;;;;;5007924;28;19922;-72
2022/08/16 05:39:01;;;;;;;;;;;;;;;;;;5005136;28;19987;-72
2022/08/16 05:41:28;;;;;;;;;;;;;;;;;;4990750;28;19925;-73
2022/08/16 05:43:55;;;;;;;;;;;;;;;;;;4987381;28;20446;-73
2022/08/16 05:46:32;;;;;;;;;;;;;;;;;;5018981;28;19944;-73
2022/08/16 05:49:08;;;;;;;;;;;;;;;;;;5018680;28;19929;-73
2022/08/16 05:51:39;;;;;;;;;;;;;;;;;;5002216;28;20390;-74
2022/08/16 05:54:07;;;;;;;;;;;;;;;;;;4991872;28;20557;-71
2022/08/16 05:56:35;;;;;;;;;;;;;;;;;;4990689;28;19921;-71
2022/08/16 05:59:03;;;;;;;;;;;;;;;;;;5018234;28;20439;-73
2022/08/16 06:01:29;;;;;;;;;;;;;;;;;;4987640;28;20004;-74
2022/08/16 06:03:58;;;;;;;;;;;;;;;;;;5001881;28;20005;-74
2022/08/16 06:06:30;;;;;;;;;;;;;;;;;;5018354;28;19973;-73
2022/08/16 06:08:58;;;;;;;;;;;;;;;;;;5022125;28;19929;-73
2022/08/16 06:11:25;;;;;;;;;;;;;;;;;;4990247;28;19928;-73
2022/08/16 06:13:55;;;;;;;;;;;;;;;;;;5015094;28;19928;-73
2022/08/16 06:16:41;;;;;;;;;;;;;;;;;;5018030;28;19957;-73
2022/08/16 06:19:08;;;;;;;;;;;;;;;;;;5018277;28;19984;-73
2022/08/16 06:21:39;;;;;;;;;;;;;;;;;;5018305;28;20399;-73
2022/08/16 06:24:06;;;;;;;;;;;;;;;;;;5020933;28;19949;-73
2022/08/16 06:26:53;;;;;;;;;;;;;;;;;;5002624;28;20021;-73
2022/08/16 06:29:25;;;;;;;;;;;;;;;;;;5019033;28;19929;-73
2022/08/16 06:31:51;;;;;;;;;;;;;;;;;;5017244;28;19922;-73
2022/08/16 06:34:18;;;;;;;;;;;;;;;;;;5010355;28;19925;-73
2022/08/16 06:37:07;;;;;;;;;;;;;;;;;;4998876;28;19930;-73
2022/08/16 06:39:35;;;;;;;;;;;;;;;;;;5018469;28;19922;-74
2022/08/16 06:42:25;;;;;;;;;;;;;;;;;;5018160;28;20053;-73
2022/08/16 06:45:01;;;;;;;;;;;;;;;;;;5023892;28;20377;-73
2022/08/16 06:47:38;;;;;;;;;;;;;;;;;;5025617;28;20041;-74
2022/08/16 06:50:20;;;;;;;;;;;;;;;;;;5022160;28;20077;-74
2022/08/16 06:52:47;;;;;;;;;;;;;;;;;;5001389;28;19926;-74
2022/08/16 06:55:36;;;;;;;;;;;;;;;;;;5015921;28;20288;-74
2022/08/16 06:58:07;;;;;;;;;;;;;;;;;;5005234;28;19932;-74
2022/08/16 07:00:47;;;;;;;;;;;;;;;;;;5021625;28;19926;-74
2022/08/16 07:03:15;;;;;;;;;;;;;;;;;;5023000;28;19930;-75
2022/08/16 07:05:55;;;;;;;;;;;;;;;;;;5022273;28;19961;-75
2022/08/16 07:08:32;;;;;;;;;;;;;;;;;;4993522;28;20600;-75
2022/08/16 07:10:58;;;;;;;;;;;;;;;;;;4989248;28;19933;-75
2022/08/16 07:13:26;;;;;;;;;;;;;;;;;;5008109;28;20020;-76
2022/08/16 07:16:13;;;;;;;;;;;;;;;;;;4968213;28;19932;-75
2022/08/16 07:18:42;;;;;;;;;;;;;;;;;;4999832;28;19926;-73
2022/08/16 07:21:28;;;;;;;;;;;;;;;;;;5017166;28;19930;-74
2022/08/16 07:24:08;;;;;;;;;;;;;;;;;;5004584;28;20397;-73
2022/08/16 07:26:37;;;;;;;;;;;;;;;;;;5022443;28;19928;-75
2022/08/16 07:29:04;;;;;;;;;;;;;;;;;;5017540;28;19956;-73
2022/08/16 07:31:30;;;;;;;;;;;;;;;;;;4999918;28;19925;-73
2022/08/16 07:34:04;;;;;;;;;;;;;;;;;;4990564;28;19926;-74
2022/08/16 07:36:31;;;;;;;;;;;;;;;;;;5023088;28;19961;-73
2022/08/16 07:38:58;;;;;;;;;;;;;;;;;;5027508;28;19928;-74
2022/08/16 07:41:28;;;;;;;;;;;;;;;;;;5042274;28;20387;-74
2022/08/16 07:43:58;;;;;;;;;;;;;;;;;;5019099;28;19928;-74
2022/08/16 07:46:27;;;;;;;;;;;;;;;;;;5023307;28;19928;-75
2022/08/16 07:49:15;;;;;;;;;;;;;;;;;;5019405;28;19931;-74
2022/08/16 07:51:42;;;;;;;;;;;;;;;;;;5015726;28;20300;-76
2022/08/16 07:54:09;;;;;;;;;;;;;;;;;;5025876;28;19964;-77
2022/08/16 07:56:42;;;;;;;;;;;;;;;;;;5042509;28;19928;-75
2022/08/16 07:59:09;;;;;;;;;;;;;;;;;;5008230;28;19921;-75
2022/08/16 08:01:37;;;;;;;;;;;;;;;;;;5006715;28;19972;-75
2022/08/16 08:04:03;;;;;;;;;;;;;;;;;;5012225;28;19925;-74
2022/08/16 08:06:34;;;;;;;;;;;;;;;;;;5012664;28;20023;-74
2022/08/16 08:09:21;;;;;;;;;;;;;;;;;;5007883;28;20447;-74
2022/08/16 08:11:49;;;;;;;;;;;;;;;;;;5037632;28;19921;-74
2022/08/16 08:14:26;;;;;;;;;;;;;;;;;;5023596;28;20028;-74
2022/08/16 08:16:55;;;;;;;;;;;;;;;;;;5011257;28;19958;-74
2022/08/16 08:19:26;;;;;;;;;;;;;;;;;;5011708;28;20346;-73
2022/08/16 08:21:53;;;;;;;;;;;;;;;;;;5018957;28;20335;-73
2022/08/16 08:24:44;;;;;;;;;;;;;;;;;;5018879;28;19929;-74
2022/08/16 08:27:11;;;;;;;;;;;;;;;;;;5024341;28;19933;-74
2022/08/16 08:29:38;;;;;;;;;;;;;;;;;;5009642;28;19975;-74
2022/08/16 08:32:06;;;;;;;;;;;;;;;;;;5015208;28;19921;-75
2022/08/16 08:34:57;;;;;;;;;;;;;;;;;;5016276;28;19921;-74
2022/08/16 08:37:28;;;;;;;;;;;;;;;;;;5037139;28;19928;-74
2022/08/16 08:40:15;;;;;;;;;;;;;;;;;;5021494;28;20015;-74
2022/08/16 08:42:42;;;;;;;;;;;;;;;;;;5028548;28;19937;-75
2022/08/16 08:45:10;;;;;;;;;;;;;;;;;;5027756;28;19921;-74
2022/08/16 08:47:55;;;;;;;;;;;;;;;;;;5026364;28;19956;-75
2022/08/16 08:50:25;;;;;;;;;;;;;;;;;;5027238;28;19927;-75
2022/08/16 08:52:57;;;;;;;;;;;;;;;;;;5018837;28;19921;-74
2022/08/16 08:55:25;;;;;;;;;;;;;;;;;;5029707;28;19952;-75
2022/08/16 08:57:51;;;;;;;;;;;;;;;;;;5026256;28;20043;-74
2022/08/16 09:00:28;;;;;;;;;;;;;;;;;;5043394;28;19968;-76
2022/08/16 09:02:57;;;;;;;;;;;;;;;;;;5016329;28;20284;-75
2022/08/16 09:05:26;;;;;;;;;;;;;;;;;;5028064;28;20334;-75
2022/08/16 09:08:01;;;;;;;;;;;;;;;;;;5020431;28;20024;-73
2022/08/16 09:10:42;;;;;;;;;;;;;;;;;;5029677;28;20338;-75
2022/08/16 09:13:09;;;;;;;;;;;;;;;;;;5029482;28;19928;-75
2022/08/16 09:15:44;;;;;;;;;;;;;;;;;;5024487;28;20338;-74
2022/08/16 09:18:10;;;;;;;;;;;;;;;;;;5026142;28;20023;-74
2022/08/16 09:20:51;;;;;;;;;;;;;;;;;;5020159;28;20333;-73
2022/08/16 09:23:24;;;;;;;;;;;;;;;;;;5025261;28;20003;-73
2022/08/16 09:25:51;;;;;;;;;;;;;;;;;;5024083;28;20303;-74
2022/08/16 09:28:17;;;;;;;;;;;;;;;;;;5028122;28;20355;-74
2022/08/16 09:31:12;;;;;;;;;;;;;;;;;;5029223;28;19960;-75
2022/08/16 09:33:39;;;;;;;;;;;;;;;;;;5016720;28;20642;-74
2022/08/16 09:36:06;;;;;;;;;;;;;;;;;;5017732;28;19943;-74
2022/08/16 09:38:38;;;;;;;;;;;;;;;;;;5029025;28;19967;-75
2022/08/16 09:41:04;;;;;;;;;;;;;;;;;;5026683;28;19960;-74
2022/08/16 09:43:31;;;;;;;;;;;;;;;;;;5026985;28;19922;-75
2022/08/16 09:46:18;;;;;;;;;;;;;;;;;;5026244;28;19939;-75
2022/08/16 09:49:04;;;;;;;;;;;;;;;;;;5005885;28;19974;-75
2022/08/16 09:51:31;;;;;;;;;;;;;;;;;;5026621;28;19929;-74
2022/08/16 09:54:01;;;;;;;;;;;;;;;;;;5030313;28;19925;-74
2022/08/16 09:56:29;;;;;;;;;;;;;;;;;;5027958;28;19921;-75
2022/08/16 09:58:56;;;;;;;;;;;;;;;;;;5014188;28;19975;-75
2022/08/16 10:01:30;;;;;;;;;;;;;;;;;;5019626;28;19925;-74
2022/08/16 10:03:57;;;;;;;;;;;;;;;;;;5025927;28;19921;-75
2022/08/16 10:06:28;;;;;;;;;;;;;;;;;;5026467;28;19925;-74
2022/08/16 10:08:59;;;;;;;;;;;;;;;;;;5030163;28;19921;-74
2022/08/16 10:14:19;;;;;;;;;;;;;;;;;;5028180;28;19956;-74
2022/08/16 10:16:49;;;;;;;;;;;;;;;;;;5026182;28;20038;-75
2022/08/16 10:19:16;;;;;;;;;;;;;;;;;;5026154;28;20322;-74
2022/08/16 10:21:45;;;;;;;;;;;;;;;;;;5030055;28;20019;-75
2022/08/16 10:24:11;;;;;;;;;;;;;;;;;;5032259;28;19976;-74
2022/08/16 10:26:38;;;;;;;;;;;;;;;;;;5032840;28;19948;-74
2022/08/16 10:29:24;;;;;;;;;;;;;;;;;;5030239;28;19920;-74
2022/08/16 10:31:51;;;;;;;;;;;;;;;;;;5029655;28;19928;-75
2022/08/16 10:34:19;;;;;;;;;;;;;;;;;;5029562;28;19929;-74
2022/08/16 10:36:57;;;;;;;;;;;;;;;;;;5018752;28;19928;-74
2022/08/16 10:39:24;;;;;;;;;;;;;;;;;;5029659;28;19923;-73
2022/08/16 10:41:51;;;;;;;;;;;;;;;;;;5033539;28;20020;-74
2022/08/16 10:44:17;;;;;;;;;;;;;;;;;;5029681;28;19952;-73
2022/08/16 10:46:44;;;;;;;;;;;;;;;;;;5026505;28;20330;-74
2022/08/16 10:49:10;;;;;;;;;;;;;;;;;;5019084;28;19971;-73
2022/08/16 10:51:38;;;;;;;;;;;;;;;;;;5029571;28;19948;-73
2022/08/16 10:54:24;;;;;;;;;;;;;;;;;;5028504;28;20012;-74
2022/08/16 10:56:54;;;;;;;;;;;;;;;;;;5029660;28;19925;-75
2022/08/16 10:59:22;;;;;;;;;;;;;;;;;;5028984;28;19967;-75
2022/08/16 11:01:58;;;;;;;;;;;;;;;;;;5029601;28;19928;-75
2022/08/16 11:04:45;;;;;;;;;;;;;;;;;;5029355;28;19947;-75
2022/08/16 11:07:31;;;;;;;;;;;;;;;;;;5030086;28;19929;-75
2022/08/16 11:10:18;;;;;;;;;;;;;;;;;;5029016;28;20633;-74
2022/08/16 11:12:46;;;;;;;;;;;;;;;;;;5029142;28;19952;-75
2022/08/16 11:15:12;;;;;;;;;;;;;;;;;;5031412;28;19929;-74
2022/08/16 11:17:42;;;;;;;;;;;;;;;;;;5032862;28;20047;-74
2022/08/16 11:20:29;;;;;;;;;;;;;;;;;;5029586;28;19960;-74
2022/08/16 11:23:07;;;;;;;;;;;;;;;;;;5030445;28;19928;-75
2022/08/16 11:25:33;;;;;;;;;;;;;;;;;;5028903;28;19952;-75
2022/08/16 11:28:20;;;;;;;;;;;;;;;;;;5028418;28;19935;-77
2022/08/16 11:31:06;;;;;;;;;;;;;;;;;;5027960;28;19921;-77
2022/08/16 11:33:32;;;;;;;;;;;;;;;;;;5018494;28;19995;-77
2022/08/16 11:36:19;;;;;;;;;;;;;;;;;;5016488;28;19929;-77
2022/08/16 11:38:52;;;;;;;;;;;;;;;;;;5023633;28;19921;-77
2022/08/16 11:41:23;;;;;;;;;;;;;;;;;;5027562;28;19925;-77
2022/08/16 11:43:49;;;;;;;;;;;;;;;;;;5027316;28;20008;-77
2022/08/16 11:46:16;;;;;;;;;;;;;;;;;;5021424;28;20020;-77
2022/08/16 11:49:02;;;;;;;;;;;;;;;;;;5028021;28;20003;-77
2022/08/16 11:51:29;;;;;;;;;;;;;;;;;;5021296;28;19921;-77
2022/08/16 11:53:55;;;;;;;;;;;;;;;;;;5033381;28;20297;-77
2022/08/16 11:56:22;;;;;;;;;;;;;;;;;;5028201;28;19959;-76
2022/08/16 11:59:05;;;;;;;;;;;;;;;;;;5028227;28;19921;-77
2022/08/16 12:01:32;;;;;;;;;;;;;;;;;;5029234;28;19921;-76
2022/08/16 12:04:10;;;;;;;;;;;;;;;;;;5028472;28;20375;-77
2022/08/16 12:06:38;;;;;;;;;;;;;;;;;;5028410;28;20303;-77
2022/08/16 12:09:05;;;;;;;;;;;;;;;;;;5031123;28;19928;-77
2022/08/16 12:11:31;;;;;;;;;;;;;;;;;;5030017;28;20024;-77
2022/08/16 12:13:58;;;;;;;;;;;;;;;;;;5028198;28;19928;-78
2022/08/16 12:16:24;;;;;;;;;;;;;;;;;;5028952;28;20405;-77
2022/08/16 12:18:56;;;;;;;;;;;;;;;;;;5028467;28;19921;-78
2022/08/16 12:21:23;;;;;;;;;;;;;;;;;;5030145;28;19956;-75
2022/08/16 12:23:49;;;;;;;;;;;;;;;;;;5032046;28;19928;-75
2022/08/16 12:26:16;;;;;;;;;;;;;;;;;;5027931;28;20004;-76
2022/08/16 12:28:42;;;;;;;;;;;;;;;;;;5027386;28;19953;-76
2022/08/16 12:31:21;;;;;;;;;;;;;;;;;;5027906;28;19983;-75
2022/08/16 12:33:48;;;;;;;;;;;;;;;;;;5017546;28;19925;-76
2022/08/16 12:36:16;;;;;;;;;;;;;;;;;;5017552;28;20031;-75
2022/08/16 12:38:43;;;;;;;;;;;;;;;;;;5030708;28;19952;-75
2022/08/16 12:41:13;;;;;;;;;;;;;;;;;;5027687;28;20011;-75
2022/08/16 12:43:40;;;;;;;;;;;;;;;;;;5027220;28;19927;-75
2022/08/16 12:46:11;;;;;;;;;;;;;;;;;;5021143;28;19925;-76
2022/08/16 12:51:23;;;;;;;;;;;;;;;;;;5022208;28;19925;-75
2022/08/16 12:53:52;;;;;;;;;;;;;;;;;;5031398;28;20004;-75
2022/08/16 12:56:18;;;;;;;;;;;;;;;;;;5027117;28;20275;-75
2022/08/16 12:58:47;;;;;;;;;;;;;;;;;;5026810;28;20008;-75
2022/08/16 13:01:16;;;;;;;;;;;;;;;;;;5029145;28;20013;-76
2022/08/16 13:03:44;;;;;;;;;;;;;;;;;;5026564;28;19921;-75
2022/08/16 13:06:10;;;;;;;;;;;;;;;;;;5029651;28;19971;-75
2022/08/16 13:08:37;;;;;;;;;;;;;;;;;;5029305;28;19944;-76
2022/08/16 13:11:04;;;;;;;;;;;;;;;;;;5026983;28;20051;-75
2022/08/16 13:13:34;;;;;;;;;;;;;;;;;;5027064;28;20325;-75
2022/08/16 13:16:00;;;;;;;;;;;;;;;;;;5026859;28;20362;-76
2022/08/16 13:18:31;;;;;;;;;;;;;;;;;;5026646;28;19921;-75
2022/08/16 13:21:00;;;;;;;;;;;;;;;;;;5030860;28;19974;-76
2022/08/16 13:23:26;;;;;;;;;;;;;;;;;;5027293;28;20004;-75
2022/08/16 13:25:53;;;;;;;;;;;;;;;;;;5045776;28;19921;-75
2022/08/16 13:28:20;;;;;;;;;;;;;;;;;;5026195;28;19921;-74
2022/08/16 13:30:47;;;;;;;;;;;;;;;;;;5026882;28;20393;-75
2022/08/16 13:33:13;;;;;;;;;;;;;;;;;;5009934;28;20020;-75
2022/08/16 13:35:43;;;;;;;;;;;;;;;;;;5019699;28;20372;-75
2022/08/16 13:38:11;;;;;;;;;;;;;;;;;;5044084;28;20018;-76
2022/08/16 13:40:46;;;;;;;;;;;;;;;;;;5022954;28;19929;-75
2022/08/16 13:43:13;;;;;;;;;;;;;;;;;;5012412;28;19950;-76
2022/08/16 13:45:40;;;;;;;;;;;;;;;;;;5026313;28;20025;-76
2022/08/16 13:48:10;;;;;;;;;;;;;;;;;;5028825;28;20039;-75
2022/08/16 13:50:36;;;;;;;;;;;;;;;;;;5028213;28;19936;-76
2022/08/16 13:53:17;;;;;;;;;;;;;;;;;;5025507;28;19932;-77
2022/08/16 13:55:43;;;;;;;;;;;;;;;;;;5025588;28;19975;-76
2022/08/16 13:58:10;;;;;;;;;;;;;;;;;;5019314;28;20008;-76
2022/08/16 14:00:56;;;;;;;;;;;;;;;;;;5021377;28;19925;-76
2022/08/16 14:03:23;;;;;;;;;;;;;;;;;;5026679;28;20000;-76
2022/08/16 14:05:51;;;;;;;;;;;;;;;;;;5029410;28;20015;-75
2022/08/16 14:08:17;;;;;;;;;;;;;;;;;;5027341;28;20023;-76
2022/08/16 14:10:46;;;;;;;;;;;;;;;;;;5025634;28;20374;-76
2022/08/16 14:13:12;;;;;;;;;;;;;;;;;;5025127;28;19960;-76
2022/08/16 14:15:46;;;;;;;;;;;;;;;;;;5025828;28;20363;-76
2022/08/16 14:18:12;;;;;;;;;;;;;;;;;;5028716;28;19921;-76
2022/08/16 14:20:42;;;;;;;;;;;;;;;;;;5028543;28;19972;-75
2022/08/16 14:23:14;;;;;;;;;;;;;;;;;;5025520;28;20032;-76
2022/08/16 14:25:40;;;;;;;;;;;;;;;;;;5025396;28;20004;-74
2022/08/16 14:28:07;;;;;;;;;;;;;;;;;;5025248;28;19925;-75
2022/08/16 14:30:35;;;;;;;;;;;;;;;;;;5025896;28;20029;-76
2022/08/16 14:33:03;;;;;;;;;;;;;;;;;;5018712;28;19983;-75
2022/08/16 14:35:30;;;;;;;;;;;;;;;;;;5015097;28;20303;-76
2022/08/16 14:38:13;;;;;;;;;;;;;;;;;;5024385;28;19925;-76
2022/08/16 14:40:43;;;;;;;;;;;;;;;;;;5021380;28;19925;-75
2022/08/16 14:43:12;;;;;;;;;;;;;;;;;;5015035;28;20413;-74
2022/08/16 14:45:40;;;;;;;;;;;;;;;;;;5025497;28;20378;-74
2022/08/16 14:48:07;;;;;;;;;;;;;;;;;;5028449;28;19964;-76
2022/08/16 14:50:33;;;;;;;;;;;;;;;;;;5027246;28;20398;-76
2022/08/16 14:53:00;;;;;;;;;;;;;;;;;;5025700;28;19921;-75
2022/08/16 14:55:26;;;;;;;;;;;;;;;;;;5025394;28;19923;-75
2022/08/16 14:57:52;;;;;;;;;;;;;;;;;;5025298;28;19927;-74
2022/08/16 15:00:19;;;;;;;;;;;;;;;;;;5026969;28;20676;-74
2022/08/16 15:02:46;;;;;;;;;;;;;;;;;;5028552;28;19979;-75
2022/08/16 15:05:13;;;;;;;;;;;;;;;;;;5025247;28;19928;-74
2022/08/16 15:07:39;;;;;;;;;;;;;;;;;;5027934;28;19920;-75
2022/08/16 15:10:06;;;;;;;;;;;;;;;;;;5028608;28;20015;-75
2022/08/16 15:12:32;;;;;;;;;;;;;;;;;;5028761;28;19956;-75
2022/08/16 15:15:01;;;;;;;;;;;;;;;;;;5032805;28;19925;-75
2022/08/16 15:17:29;;;;;;;;;;;;;;;;;;5029387;28;19927;-75
2022/08/16 15:19:59;;;;;;;;;;;;;;;;;;5028565;28;19979;-75
2022/08/16 15:22:26;;;;;;;;;;;;;;;;;;5029577;28;20359;-76
2022/08/16 15:24:57;;;;;;;;;;;;;;;;;;5021162;28;19936;-75
2022/08/16 15:27:24;;;;;;;;;;;;;;;;;;5029457;28;19929;-75
2022/08/16 15:29:51;;;;;;;;;;;;;;;;;;5032929;28;19921;-75
2022/08/16 15:32:17;;;;;;;;;;;;;;;;;;5023560;28;19937;-74
2022/08/16 15:34:51;;;;;;;;;;;;;;;;;;5020916;28;19964;-73
2022/08/16 15:37:18;;;;;;;;;;;;;;;;;;5018763;28;19928;-75
2022/08/16 15:39:44;;;;;;;;;;;;;;;;;;5022169;28;20024;-74
2022/08/16 15:42:13;;;;;;;;;;;;;;;;;;5030858;28;19928;-75
2022/08/16 15:44:52;;;;;;;;;;;;;;;;;;5032375;28;20406;-73
2022/08/16 15:47:26;;;;;;;;;;;;;;;;;;5028657;28;20015;-73
2022/08/16 15:49:52;;;;;;;;;;;;;;;;;;5023721;28;20380;-74
2022/08/16 15:52:21;;;;;;;;;;;;;;;;;;5018977;28;19940;-74
2022/08/16 15:54:50;;;;;;;;;;;;;;;;;;5027661;28;19922;-74
2022/08/16 15:57:19;;;;;;;;;;;;;;;;;;5029149;28;20314;-74
2022/08/16 15:59:48;;;;;;;;;;;;;;;;;;5031205;28;20486;-74
2022/08/16 16:02:17;;;;;;;;;;;;;;;;;;5027640;28;19928;-74
2022/08/16 16:04:55;;;;;;;;;;;;;;;;;;5022773;28;19924;-74
2022/08/16 16:07:22;;;;;;;;;;;;;;;;;;5028359;28;20084;-74
2022/08/16 16:09:48;;;;;;;;;;;;;;;;;;5027562;28;20016;-75
2022/08/16 16:12:14;;;;;;;;;;;;;;;;;;5030149;28;20027;-75
2022/08/16 16:15:01;;;;;;;;;;;;;;;;;;5028751;28;20286;-74
2022/08/16 16:17:28;;;;;;;;;;;;;;;;;;5027354;28;19968;-74
2022/08/16 16:19:54;;;;;;;;;;;;;;;;;;5027836;28;20446;-74
2022/08/16 16:22:21;;;;;;;;;;;;;;;;;;5027803;28;20003;-74
2022/08/16 16:24:49;;;;;;;;;;;;;;;;;;5027608;28;19983;-75
2022/08/16 16:27:15;;;;;;;;;;;;;;;;;;5029996;28;19929;-75
2022/08/16 16:29:41;;;;;;;;;;;;;;;;;;5030184;28;19960;-75
2022/08/16 16:32:11;;;;;;;;;;;;;;;;;;5019782;28;20367;-75
2022/08/16 16:34:38;;;;;;;;;;;;;;;;;;5019843;28;19925;-74
2022/08/16 16:37:04;;;;;;;;;;;;;;;;;;5016400;28;19964;-74
2022/08/16 16:39:31;;;;;;;;;;;;;;;;;;5021045;28;19975;-73
2022/08/16 16:41:58;;;;;;;;;;;;;;;;;;5027834;28;19935;-74
2022/08/16 16:44:24;;;;;;;;;;;;;;;;;;5027210;28;19964;-76
2022/08/16 16:46:59;;;;;;;;;;;;;;;;;;5027288;28;19925;-75
2022/08/16 16:49:25;;;;;;;;;;;;;;;;;;5027229;28;19924;-75
2022/08/16 16:51:52;;;;;;;;;;;;;;;;;;5027236;28;19957;-75
2022/08/16 16:54:19;;;;;;;;;;;;;;;;;;5029014;28;19967;-75
2022/08/16 16:56:53;;;;;;;;;;;;;;;;;;5031356;28;19927;-75
2022/08/16 16:59:20;;;;;;;;;;;;;;;;;;5026487;28;20286;-75
2022/08/16 17:01:48;;;;;;;;;;;;;;;;;;5026905;28;19931;-75
2022/08/16 17:04:27;;;;;;;;;;;;;;;;;;5027211;28;19928;-75
2022/08/16 17:06:57;;;;;;;;;;;;;;;;;;5026767;28;19960;-75
2022/08/16 17:09:24;;;;;;;;;;;;;;;;;;5028018;28;20355;-75
2022/08/16 17:11:50;;;;;;;;;;;;;;;;;;5030493;28;19925;-75
2022/08/16 17:14:21;;;;;;;;;;;;;;;;;;5027029;28;19921;-75
2022/08/16 17:16:59;;;;;;;;;;;;;;;;;;5026645;28;19928;-75